createdAt,value
2023-02-14T00:01:28.211Z,27.95
2023-02-14T00:03:55.274Z,26.30
2023-02-14T00:06:24.826Z,28.00
2023-02-14T00:08:51.952Z,30.73
2023-02-14T00:11:21.755Z,30.65
2023-02-14T00:13:48.876Z,27.98
2023-02-14T00:16:16.427Z,30.30
2023-02-14T00:18:45.959Z,29.17
2023-02-14T00:21:13.325Z,26.27
2023-02-14T00:23:42.581Z,32.83
2023-02-14T00:26:16.246Z,28.08
2023-02-14T00:28:45.753Z,27.25
2023-02-14T00:31:13.268Z,27.50
2023-02-14T00:33:40.380Z,27.00
2023-02-14T00:36:10.655Z,26.90
2023-02-14T00:38:42.388Z,24.48
2023-02-14T00:41:09.754Z,28.63
2023-02-14T00:43:36.806Z,26.75
2023-02-14T00:46:06.834Z,27.45
2023-02-14T00:48:33.911Z,27.80
2023-02-14T00:51:03.721Z,29.35
2023-02-14T00:53:30.852Z,28.10
2023-02-14T00:55:58.168Z,28.52
2023-02-14T00:58:25.352Z,25.17
2023-02-14T01:00:55.211Z,27.77
2023-02-14T01:03:24.640Z,28.75
2023-02-14T01:05:52.214Z,27.80
2023-02-14T01:08:19.750Z,26.80
2023-02-14T01:10:49.584Z,27.95
2023-02-14T01:13:17.192Z,25.67
2023-02-14T01:15:51.458Z,26.52
2023-02-14T01:20:47.968Z,26.58
2023-02-14T01:23:15.049Z,23.83
2023-02-14T01:25:44.753Z,25.08
2023-02-14T01:28:11.833Z,25.25
2023-02-14T01:30:43.789Z,26.80
2023-02-14T01:33:10.881Z,26.08
2023-02-14T01:35:40.481Z,27.85
2023-02-14T01:38:10.019Z,31.80
2023-02-14T01:40:43.284Z,24.38
2023-02-14T01:43:15.910Z,26.98
2023-02-14T01:45:43.309Z,31.92
2023-02-14T01:48:13.085Z,28.90
2023-02-14T01:50:45.207Z,27.10
2023-02-14T01:53:26.291Z,25.33
2023-02-14T01:56:02.905Z,27.05
2023-02-14T01:58:33.863Z,27.55
2023-02-14T02:01:03.588Z,26.35
2023-02-14T02:03:51.333Z,27.40
2023-02-14T02:06:33.649Z,26.60
2023-02-14T02:09:18.923Z,26.25
2023-02-14T02:11:49.105Z,25.63
2023-02-14T02:14:21.010Z,25.33
2023-02-14T02:17:17.141Z,26.23
2023-02-14T02:20:12.998Z,26.58
2023-02-14T02:22:43.099Z,27.73
2023-02-14T02:25:37.644Z,28.33
2023-02-14T02:28:26.205Z,27.92
2023-02-14T02:31:11.644Z,26.77
2023-02-14T02:33:57.597Z,29.23
2023-02-14T02:36:39.265Z,26.77
2023-02-14T02:39:34.079Z,29.98
2023-02-14T02:42:06.817Z,27.45
2023-02-14T02:45:15.284Z,29.40
2023-02-14T02:47:54.334Z,30.75
2023-02-14T02:50:46.399Z,28.23
2023-02-14T02:53:19.319Z,33.00
2023-02-14T02:56:11.004Z,29.13
2023-02-14T02:59:01.947Z,33.88
2023-02-14T03:01:39.193Z,32.85
2023-02-14T03:04:10.381Z,34.22
2023-02-14T03:06:37.775Z,33.00
2023-02-14T03:09:30.662Z,32.50
2023-02-14T03:12:01.190Z,36.58
2023-02-14T03:15:11.500Z,35.92
2023-02-14T03:18:07.123Z,36.78
2023-02-14T03:20:46.503Z,39.35
2023-02-14T03:23:21.592Z,34.83
2023-02-14T03:26:27.057Z,36.83
2023-02-14T03:29:07.417Z,36.53
2023-02-14T03:31:38.092Z,36.15
2023-02-14T03:34:16.068Z,34.83
2023-02-14T03:36:52.723Z,36.13
2023-02-14T03:39:57.940Z,34.05
2023-02-14T03:42:33.844Z,37.22
2023-02-14T03:45:04.796Z,36.35
2023-02-14T03:47:40.970Z,38.08
2023-02-14T03:50:16.916Z,35.88
2023-02-14T03:52:49.643Z,35.53
2023-02-14T03:55:24.602Z,37.72
2023-02-14T03:58:15.985Z,36.92
2023-02-14T04:03:28.080Z,37.47
2023-02-14T04:05:55.598Z,38.03
2023-02-14T04:08:25.415Z,38.33
2023-02-14T04:10:53.949Z,37.63
2023-02-14T04:13:23.662Z,36.78
2023-02-14T04:15:51.143Z,38.58
2023-02-14T04:18:18.202Z,34.88
2023-02-14T04:20:45.583Z,38.30
2023-02-14T04:23:12.628Z,35.70
2023-02-14T04:25:40.048Z,37.42
2023-02-14T04:28:09.800Z,38.17
2023-02-14T04:30:37.363Z,34.70
2023-02-14T04:33:06.936Z,34.90
2023-02-14T04:35:35.436Z,35.35
2023-02-14T04:38:03.748Z,33.67
2023-02-14T04:40:31.256Z,38.47
2023-02-14T04:43:00.831Z,35.70
2023-02-14T04:45:30.470Z,35.30
2023-02-14T04:47:57.472Z,34.00
2023-02-14T04:50:27.106Z,33.45
2023-02-14T04:52:54.198Z,35.08
2023-02-14T04:55:21.573Z,35.50
2023-02-14T04:57:51.114Z,38.10
2023-02-14T05:00:19.087Z,34.78
2023-02-14T05:02:48.408Z,32.08
2023-02-14T05:05:18.228Z,35.13
2023-02-14T05:07:47.546Z,36.85
2023-02-14T05:10:15.215Z,33.20
2023-02-14T05:12:42.481Z,39.53
2023-02-14T05:15:12.285Z,34.53
2023-02-14T05:17:39.335Z,33.53
2023-02-14T05:20:07.759Z,35.53
2023-02-14T05:22:34.794Z,36.80
2023-02-14T05:25:02.277Z,37.08
2023-02-14T05:27:29.628Z,36.65
2023-02-14T05:29:59.364Z,39.33
2023-02-14T05:32:26.433Z,35.80
2023-02-14T05:34:53.768Z,35.22
2023-02-14T05:37:23.063Z,33.95
2023-02-14T05:39:52.720Z,36.28
2023-02-14T05:42:19.792Z,33.80
2023-02-14T05:44:47.308Z,36.80
2023-02-14T05:47:15.048Z,37.88
2023-02-14T05:49:44.915Z,39.92
2023-02-14T05:52:14.509Z,35.78
2023-02-14T05:54:41.863Z,35.08
2023-02-14T05:57:11.538Z,33.55
2023-02-14T05:59:38.893Z,32.03
2023-02-14T06:02:06.135Z,35.97
2023-02-14T06:04:33.611Z,34.92
2023-02-14T06:07:00.710Z,35.90
2023-02-14T06:09:28.100Z,33.58
2023-02-14T06:11:55.455Z,32.80
2023-02-14T06:14:22.823Z,33.83
2023-02-14T06:16:50.115Z,35.92
2023-02-14T06:19:17.620Z,33.08
2023-02-14T06:21:44.696Z,33.53
2023-02-14T06:24:12.222Z,34.70
2023-02-14T06:26:41.517Z,32.03
2023-02-14T06:29:08.925Z,32.17
2023-02-14T06:31:36.152Z,31.23
2023-02-14T06:34:03.696Z,34.95
2023-02-14T06:36:30.866Z,32.78
2023-02-14T06:38:58.280Z,32.45
2023-02-14T06:41:27.854Z,35.85
2023-02-14T06:43:55.269Z,35.03
2023-02-14T06:46:22.566Z,43.97
2023-02-14T06:48:50.021Z,34.28
2023-02-14T06:51:17.400Z,35.30
2023-02-14T06:53:44.840Z,39.40
2023-02-14T06:56:11.989Z,32.40
2023-02-14T06:58:39.402Z,36.28
2023-02-14T07:01:06.659Z,32.78
2023-02-14T07:03:34.104Z,35.22
2023-02-14T07:06:01.191Z,35.60
2023-02-14T07:08:28.701Z,34.50
2023-02-14T07:10:57.288Z,35.65
2023-02-14T07:13:25.415Z,34.33
2023-02-14T07:15:52.718Z,33.70
2023-02-14T07:18:20.328Z,30.95
2023-02-14T07:20:47.453Z,35.50
2023-02-14T07:23:14.972Z,37.90
2023-02-14T07:25:44.273Z,32.53
2023-02-14T07:28:11.857Z,36.70
2023-02-14T07:30:38.962Z,34.33
2023-02-14T07:33:06.420Z,29.60
2023-02-14T07:35:33.533Z,33.03
2023-02-14T07:38:01.239Z,33.63
2023-02-14T07:40:28.479Z,31.25
2023-02-14T07:42:57.597Z,36.70
2023-02-14T07:45:27.021Z,34.17
2023-02-14T07:47:55.391Z,33.92
2023-02-14T07:50:23.468Z,32.20
2023-02-14T07:52:51.697Z,33.78
2023-02-14T07:55:22.213Z,36.35
2023-02-14T07:57:49.986Z,38.63
2023-02-14T08:00:20.039Z,34.30
2023-02-14T08:02:47.580Z,33.35
2023-02-14T08:05:17.144Z,35.75
2023-02-14T08:07:44.691Z,35.70
2023-02-14T08:10:13.163Z,33.38
2023-02-14T08:12:44.582Z,36.53
2023-02-14T08:15:11.900Z,32.22
2023-02-14T08:17:39.417Z,35.47
2023-02-14T08:20:09.842Z,37.88
2023-02-14T08:22:39.477Z,44.30
2023-02-14T08:25:06.902Z,38.65
2023-02-14T08:27:34.488Z,35.70
2023-02-14T08:30:04.088Z,35.72
2023-02-14T08:32:34.030Z,35.85
2023-02-14T08:35:04.337Z,34.88
2023-02-14T08:37:31.747Z,34.65
2023-02-14T08:39:58.787Z,35.80
2023-02-14T08:42:32.263Z,41.78
2023-02-14T08:45:01.905Z,35.15
2023-02-14T08:47:34.702Z,34.60
2023-02-14T08:50:13.633Z,34.47
2023-02-14T08:52:44.414Z,36.05
2023-02-14T08:55:14.153Z,37.50
2023-02-14T08:57:41.547Z,35.40
2023-02-14T09:00:09.521Z,36.60
2023-02-14T09:02:37.211Z,40.47
2023-02-14T09:05:04.607Z,37.35
2023-02-14T09:07:34.531Z,33.88
2023-02-14T09:10:01.697Z,39.22
2023-02-14T09:12:33.527Z,36.15
2023-02-14T09:15:02.893Z,40.47
2023-02-14T09:17:32.758Z,34.95
2023-02-14T09:19:59.934Z,37.03
2023-02-14T09:22:27.300Z,36.92
2023-02-14T09:24:54.434Z,36.65
2023-02-14T09:27:21.801Z,32.92
2023-02-14T09:29:48.916Z,38.88
2023-02-14T09:32:16.785Z,35.05
2023-02-14T09:34:46.305Z,35.95
2023-02-14T09:37:14.273Z,39.55
2023-02-14T09:39:44.078Z,35.95
2023-02-14T09:42:38.755Z,38.10
2023-02-14T09:45:11.781Z,38.05
2023-02-14T09:47:51.055Z,40.20
2023-02-14T09:50:30.801Z,40.05
2023-02-14T09:53:02.046Z,40.25
2023-02-14T09:55:39.960Z,40.35
2023-02-14T09:58:31.940Z,41.95
2023-02-14T10:01:18.342Z,43.40
2023-02-14T10:03:45.794Z,44.17
2023-02-14T10:06:28.559Z,41.13
2023-02-14T10:09:17.138Z,45.05
2023-02-14T10:11:48.872Z,46.08
2023-02-14T10:14:24.241Z,36.80
2023-02-14T10:16:59.701Z,37.67
2023-02-14T10:19:40.777Z,39.60
2023-02-14T10:22:48.369Z,34.40
2023-02-14T10:25:28.325Z,40.10
2023-02-14T10:27:58.659Z,36.88
2023-02-14T10:30:36.125Z,36.30
2023-02-14T10:33:06.366Z,35.50
2023-02-14T10:35:55.542Z,41.15
2023-02-14T10:38:25.512Z,38.13
2023-02-14T10:41:20.961Z,43.30
2023-02-14T10:44:02.596Z,36.45
2023-02-14T10:47:07.622Z,39.72
2023-02-14T10:50:15.341Z,43.17
2023-02-14T10:53:13.712Z,37.05
2023-02-14T10:55:56.188Z,47.72
2023-02-14T10:58:27.892Z,38.15
2023-02-14T11:01:04.078Z,36.05
2023-02-14T11:03:34.387Z,35.63
2023-02-14T11:06:01.554Z,38.72
2023-02-14T11:08:33.526Z,36.08
2023-02-14T11:11:41.024Z,34.03
2023-02-14T11:14:28.549Z,37.80
2023-02-14T11:16:59.371Z,37.13
2023-02-14T11:20:03.135Z,37.90
2023-02-14T11:22:35.301Z,36.05
2023-02-14T11:25:17.751Z,35.08
2023-02-14T11:27:49.550Z,39.28
2023-02-14T11:30:31.350Z,36.25
2023-02-14T11:32:58.624Z,34.00
2023-02-14T11:35:28.866Z,37.72
2023-02-14T11:38:01.386Z,36.28
2023-02-14T11:40:38.573Z,36.27
2023-02-14T11:43:14.244Z,36.20
2023-02-14T11:45:47.005Z,34.03
2023-02-14T11:48:22.329Z,39.15
2023-02-14T11:51:04.358Z,37.85
2023-02-14T11:53:55.084Z,34.60
2023-02-14T11:56:42.856Z,39.28
2023-02-14T11:59:15.535Z,37.72
2023-02-14T12:01:49.425Z,58.03
2023-02-14T12:04:32.798Z,40.05
2023-02-14T12:07:22.498Z,33.13
2023-02-14T12:10:07.682Z,34.05
2023-02-14T12:12:35.719Z,34.15
2023-02-14T12:15:21.300Z,32.58
2023-02-14T12:18:02.420Z,32.55
2023-02-14T12:20:58.542Z,37.60
2023-02-14T12:24:05.436Z,33.33
2023-02-14T12:26:36.689Z,42.42
2023-02-14T12:29:17.240Z,34.00
2023-02-14T12:31:47.683Z,35.17
2023-02-14T12:34:16.587Z,32.17
2023-02-14T12:37:13.578Z,34.83
2023-02-14T12:40:11.305Z,33.67
2023-02-14T12:43:19.442Z,33.90
2023-02-14T12:46:10.597Z,34.53
2023-02-14T12:49:05.026Z,45.55
2023-02-14T12:51:47.755Z,47.50
2023-02-14T12:54:54.166Z,38.20
2023-02-14T12:57:24.694Z,32.95
2023-02-14T13:00:03.448Z,31.15
2023-02-14T13:02:49.463Z,37.90
2023-02-14T13:05:38.132Z,32.55
2023-02-14T13:08:38.218Z,34.28
2023-02-14T13:11:24.001Z,34.03
2023-02-14T13:14:10.379Z,33.58
2023-02-14T13:17:17.396Z,32.00
2023-02-14T13:20:25.852Z,31.10
2023-02-14T13:22:55.929Z,37.15
2023-02-14T13:25:27.262Z,34.03
2023-02-14T13:27:54.373Z,31.08
2023-02-14T13:30:32.306Z,34.13
2023-02-14T13:33:06.578Z,35.35
2023-02-14T13:35:35.123Z,36.33
2023-02-14T13:38:06.688Z,36.88
2023-02-14T13:40:35.814Z,39.40
2023-02-14T13:43:03.172Z,34.60
2023-02-14T13:45:30.699Z,37.03
2023-02-14T13:48:07.044Z,38.88
2023-02-14T13:50:40.018Z,36.50
2023-02-14T13:53:24.617Z,38.88
2023-02-14T13:55:52.033Z,38.38
2023-02-14T13:58:19.975Z,37.03
2023-02-14T14:00:52.591Z,38.20
2023-02-14T14:03:28.922Z,39.13
2023-02-14T14:06:13.050Z,35.55
2023-02-14T14:08:48.944Z,33.80
2023-02-14T14:11:22.653Z,31.65
2023-02-14T14:14:23.517Z,36.63
2023-02-14T14:16:58.955Z,34.42
2023-02-14T14:19:25.991Z,31.83
2023-02-14T14:22:05.687Z,34.78
2023-02-14T14:24:41.405Z,37.45
2023-02-14T14:27:29.996Z,35.78
2023-02-14T14:29:59.903Z,36.88
2023-02-14T14:32:38.679Z,36.92
2023-02-14T14:35:22.321Z,35.45
2023-02-14T14:37:54.850Z,38.75
2023-02-14T14:40:25.021Z,37.20
2023-02-14T14:42:54.009Z,36.53
2023-02-14T14:45:26.634Z,47.53
2023-02-14T14:47:57.756Z,40.55
2023-02-14T14:50:33.268Z,34.05
2023-02-14T14:53:18.129Z,38.13
2023-02-14T14:55:46.592Z,36.85
2023-02-14T14:58:33.947Z,37.20
2023-02-14T15:01:07.857Z,36.60
2023-02-14T15:03:35.231Z,42.08
2023-02-14T15:06:20.478Z,41.47
2023-02-14T15:08:49.377Z,43.60
2023-02-14T15:11:21.457Z,45.10
2023-02-14T15:13:52.968Z,43.17
2023-02-14T15:16:37.840Z,46.30
2023-02-14T15:19:16.803Z,41.25
2023-02-14T15:21:46.623Z,45.60
2023-02-14T15:24:19.388Z,42.97
2023-02-14T15:26:53.566Z,43.17
2023-02-14T15:29:25.110Z,42.95
2023-02-14T15:31:57.877Z,40.40
2023-02-14T15:34:32.674Z,42.92
2023-02-14T15:37:00.823Z,49.55
2023-02-14T15:39:51.980Z,40.70
2023-02-14T15:42:33.776Z,41.35
2023-02-14T15:45:30.683Z,45.63
2023-02-14T15:48:02.760Z,47.42
2023-02-14T15:50:33.549Z,44.25
2023-02-14T15:53:28.852Z,49.88
2023-02-14T15:56:22.425Z,49.17
2023-02-14T15:58:49.617Z,58.70
2023-02-14T16:01:20.624Z,45.45
2023-02-14T16:03:52.349Z,50.55
2023-02-14T16:06:37.362Z,53.40
2023-02-14T16:09:25.091Z,56.42
2023-02-14T16:11:57.511Z,58.08
2023-02-14T16:14:31.258Z,56.90
2023-02-14T16:17:00.527Z,60.03
2023-02-14T16:19:38.331Z,54.78
2023-02-14T16:22:09.263Z,61.10
2023-02-14T16:24:36.509Z,63.40
2023-02-14T16:27:04.983Z,57.63
2023-02-14T16:29:32.729Z,59.40
2023-02-14T16:32:17.360Z,65.30
2023-02-14T16:34:45.507Z,65.53
2023-02-14T16:37:23.515Z,66.03
2023-02-14T16:39:54.959Z,65.28
2023-02-14T16:42:22.481Z,72.45
2023-02-14T16:44:50.630Z,78.35
2023-02-14T16:47:20.182Z,81.00
2023-02-14T16:49:49.946Z,81.65
2023-02-14T16:52:21.832Z,93.38
2023-02-14T16:54:58.117Z,87.15
2023-02-14T16:57:33.594Z,83.30
2023-02-14T17:00:00.789Z,80.30
2023-02-14T17:02:28.856Z,71.85
2023-02-14T17:04:56.568Z,72.78
2023-02-14T17:07:26.624Z,66.95
2023-02-14T17:09:58.879Z,73.55
2023-02-14T17:12:33.860Z,66.00
2023-02-14T17:15:07.732Z,67.75
2023-02-14T17:17:40.397Z,65.18
2023-02-14T17:20:08.233Z,67.10
2023-02-14T17:22:37.301Z,67.75
2023-02-14T17:25:10.615Z,61.88
2023-02-14T17:27:40.564Z,68.68
2023-02-14T17:30:13.500Z,71.38
2023-02-14T17:32:41.876Z,79.10
2023-02-14T17:35:11.516Z,70.25
2023-02-14T17:37:44.044Z,78.55
2023-02-14T17:40:12.290Z,71.53
2023-02-14T17:42:44.692Z,77.55
2023-02-14T17:45:12.043Z,79.68
2023-02-14T17:47:42.084Z,88.22
2023-02-14T17:50:09.684Z,93.38
2023-02-14T17:52:37.132Z,92.53
2023-02-14T17:55:04.551Z,92.72
2023-02-14T17:57:32.416Z,90.18
2023-02-14T17:59:59.501Z,94.55
2023-02-14T18:02:27.010Z,92.35
2023-02-14T18:04:54.734Z,97.10
2023-02-14T18:07:25.115Z,92.93
2023-02-14T18:09:54.830Z,94.55
2023-02-14T18:12:24.404Z,95.32
2023-02-14T18:14:51.540Z,96.85
2023-02-14T18:17:19.155Z,97.75
2023-02-14T18:19:46.382Z,100.93
2023-02-14T18:22:16.476Z,114.32
2023-02-14T18:24:43.671Z,199.35
2023-02-14T18:27:16.098Z,112.40
2023-02-14T18:29:47.215Z,105.82
2023-02-14T18:32:15.110Z,101.05
2023-02-14T18:34:44.669Z,118.10
2023-02-14T18:37:13.722Z,119.10
2023-02-14T18:39:40.969Z,149.85
2023-02-14T18:42:10.872Z,107.70
2023-02-14T18:44:40.213Z,96.57
2023-02-14T18:47:10.372Z,119.53
2023-02-14T18:49:37.406Z,109.07
2023-02-14T18:52:04.820Z,103.80
2023-02-14T18:54:31.920Z,109.50
2023-02-14T18:57:01.974Z,111.38
2023-02-14T18:59:30.854Z,124.03
2023-02-14T19:01:59.792Z,115.80
2023-02-14T19:04:27.080Z,120.30
2023-02-14T19:06:57.025Z,122.68
2023-02-14T19:09:28.643Z,137.75
2023-02-14T19:11:56.049Z,164.38
2023-02-14T19:14:23.092Z,171.27
2023-02-14T19:16:51.225Z,169.32
2023-02-14T19:19:20.188Z,158.07
2023-02-14T19:21:47.614Z,171.55
2023-02-14T19:24:16.743Z,163.52
2023-02-14T19:26:48.346Z,170.13
2023-02-14T19:29:17.734Z,160.52
2023-02-14T19:31:50.299Z,148.05
2023-02-14T19:34:23.234Z,150.35
2023-02-14T19:36:52.640Z,143.20
2023-02-14T19:39:23.114Z,146.40
2023-02-14T19:41:51.317Z,152.10
2023-02-14T19:44:18.831Z,161.27
2023-02-14T19:46:48.959Z,146.93
2023-02-14T19:49:20.099Z,152.18
2023-02-14T19:51:50.511Z,158.98
2023-02-14T19:54:20.262Z,141.18
2023-02-14T19:56:48.046Z,154.75
2023-02-14T19:59:16.177Z,141.18
2023-02-14T20:01:50.964Z,168.23
2023-02-14T20:04:25.978Z,156.55
2023-02-14T20:06:56.529Z,160.48
2023-02-14T20:09:24.295Z,168.25
2023-02-14T20:11:54.898Z,184.85
2023-02-14T20:14:24.710Z,181.48
2023-02-14T20:16:56.180Z,172.80
2023-02-14T20:19:25.689Z,156.90
2023-02-14T20:21:53.396Z,172.35
2023-02-14T20:24:26.386Z,153.27
2023-02-14T20:26:57.195Z,152.85
2023-02-14T20:29:27.676Z,155.60
2023-02-14T20:31:59.169Z,163.75
2023-02-14T20:34:29.014Z,159.23
2023-02-14T20:36:56.597Z,148.20
2023-02-14T20:39:28.981Z,116.43
2023-02-14T20:41:56.497Z,120.05
2023-02-14T20:44:23.679Z,114.03
2023-02-14T20:46:53.469Z,147.40
2023-02-14T20:49:22.755Z,146.70
2023-02-14T20:51:51.188Z,149.93
2023-02-14T20:54:23.348Z,173.35
2023-02-14T20:56:51.163Z,184.40
2023-02-14T20:59:18.954Z,144.77
2023-02-14T21:01:48.975Z,114.65
2023-02-14T21:04:16.106Z,125.30
2023-02-14T21:06:43.532Z,139.85
2023-02-14T21:09:10.652Z,174.40
2023-02-14T21:11:40.582Z,198.88
2023-02-14T21:14:08.145Z,152.50
2023-02-14T21:16:35.563Z,184.55
2023-02-14T21:19:02.675Z,173.85
2023-02-14T21:21:35.288Z,190.98
2023-02-14T21:24:08.866Z,185.80
2023-02-14T21:26:36.315Z,173.52
2023-02-14T21:29:06.708Z,171.00
2023-02-14T21:31:35.252Z,162.93
2023-02-14T21:34:03.217Z,132.38
2023-02-14T21:36:34.573Z,159.45
2023-02-14T21:39:02.213Z,120.15
2023-02-14T21:41:30.893Z,128.93
2023-02-14T21:43:59.462Z,101.07
2023-02-14T21:46:30.579Z,103.50
2023-02-14T21:48:59.662Z,124.05
2023-02-14T21:51:27.932Z,117.80
2023-02-14T21:53:56.292Z,137.63
2023-02-14T21:56:24.070Z,139.18
2023-02-14T21:58:52.740Z,141.80
2023-02-14T22:01:26.565Z,129.15
2023-02-14T22:03:54.537Z,134.18
2023-02-14T22:06:25.608Z,108.28
2023-02-14T22:09:01.338Z,104.97
2023-02-14T22:11:29.481Z,90.97
2023-02-14T22:13:57.493Z,84.75
2023-02-14T22:16:25.266Z,84.05
2023-02-14T22:18:55.100Z,78.55
2023-02-14T22:21:24.852Z,84.78
2023-02-14T22:23:51.990Z,89.78
2023-02-14T22:26:25.824Z,88.22
2023-02-14T22:28:55.654Z,110.88
2023-02-14T22:31:24.833Z,97.38
2023-02-14T22:33:51.971Z,97.53
2023-02-14T22:36:19.909Z,84.10
2023-02-14T22:38:50.174Z,88.72
2023-02-14T22:41:20.115Z,85.10
2023-02-14T22:43:47.577Z,85.28
2023-02-14T22:46:17.714Z,81.75
2023-02-14T22:48:46.145Z,79.50
2023-02-14T22:51:21.750Z,87.32
2023-02-14T22:53:53.573Z,73.25
2023-02-14T22:56:25.663Z,68.03
2023-02-14T22:59:04.879Z,76.20
2023-02-14T23:01:34.078Z,73.40
2023-02-14T23:04:04.220Z,68.35
2023-02-14T23:06:36.077Z,73.03
2023-02-14T23:09:07.375Z,75.75
2023-02-14T23:11:36.970Z,71.20
2023-02-14T23:14:06.978Z,73.30
2023-02-14T23:16:34.486Z,72.20
2023-02-14T23:19:01.560Z,61.72
2023-02-14T23:21:29.054Z,63.63
2023-02-14T23:23:56.093Z,61.10
2023-02-14T23:26:23.616Z,53.53
2023-02-14T23:28:50.675Z,60.58
2023-02-14T23:31:18.297Z,63.72
2023-02-14T23:33:52.499Z,61.75
2023-02-14T23:36:19.940Z,62.78
2023-02-14T23:38:46.995Z,57.47
2023-02-14T23:41:14.351Z,59.22
2023-02-14T23:43:41.391Z,60.40
2023-02-14T23:46:08.792Z,61.67
2023-02-14T23:48:35.931Z,61.50
2023-02-14T23:51:03.270Z,63.10
2023-02-14T23:53:30.378Z,72.68
2023-02-14T23:56:01.828Z,56.88
2023-02-14T23:58:31.591Z,55.60
